Madras, OR

4:57 AM PDT on March 29, 2017 (GMT -0700)
Downtown Madras | | Change Station

Elev 2262 ft 44.63 °N, 121.13 °W | Updated 13 seconds ago

Mostly Cloudy
Mostly Cloudy
49.8 °F
Feels Like 50 °F
N
3.0
Wind Variable Wind from SSW
Gusts 7.0 mph

Today
High -- | Low -- °F
--% Chance of Precip.
Yesterday
High -- | Low -- °F
Precip. -- in
Pressure 30.04 in
Visibility 10.0 miles
Clouds Scattered Clouds 6000 ft
Overcast 7500 ft
Windchill 50 °F
Dew Point 40 °F
Humidity 69%
Rainfall 0.00 in
Snow Depth Not available.
6:50 AM 7:28 PM
Waxing Crescent, 3% visible
METAR KRDM 291056Z AUTO 20018G28KT 10SM SCT060 OVC075 09/01 A3006 RMK AO2 PK WND 21028/1051 RAB36E53 SLP173 P0000 T00890011
Pressure 30.04 in
Visibility 10.0 miles
Clouds Scattered Clouds 6000 ft
Overcast 7500 ft
Windchill 50 °F
Dew Point 40 °F
Humidity 69%
Rainfall 0.00 in
Snow Depth Not available.
6:50 AM 7:28 PM
Waxing Crescent, 3% visible
METAR KRDM 291056Z AUTO 20018G28KT 10SM SCT060 OVC075 09/01 A3006 RMK AO2 PK WND 21028/1051 RAB36E53 SLP173 P0000 T00890011

Get Severe Weather Alerts

Thanks for signing up!

Be on the lookout for a verification email in your inbox.

You'll start receiving the daily forecast at 8 AM.

×

10-Day Weather Forecast

Almanac

Astronomy

Mar. 29, 2017 Rise Set
Actual Time
Civil Twilight
Nautical Twilight
Astronomical Twilight
Moon
Length of Visible Light
Length of Day
Tomorrow will be .
, % of the Moon is Illuminated

Today's Extremes

State Highs State Lows

Community

WunderPhotos

Upload Photos

1,962,540 photos uploaded!

WunderBlog® & News

Nearby

Air Quality

  Air Quality AQ Index Pollutant
Not available.

Snow Depth

Station Depth Elevation

Earthquake Activity

City Distance Mag. Time & Date
Minimum magnitude displayed is 2.5.

Earthquake Activity

City Distance Mag. Time & Date
Minimum magnitude displayed is 2.5.

Coastal Water Temperatures

Place Temperature

Stations

Nearby Weather Stations

Station Location Temp. Windchill Dew Point Humidity Wind Precip. Elev Updated Type
                   

Watches & Warnings

There are currently no watches in effect.